Main page
METAR-TAF:

Airports :

Christchurch, New Zealand

Christchurch International Airport

latitude: 43-29S, longitude: 172-33E, elevation: 38 m

Current weather observation

The report was made 40 minutes ago, at 18:00 UTC
Wind 1 kt from the East/Southeast
Temperature 2°C
Humidity 100%
Pressure 1022 hPa
Visibility 10 km or more

METAR: NZCH 061800Z AUTO 11001KT 9999 NCD 02/02 Q1022 NOSIG

Time: 06:40 (18:40 UTC)

Forecast

The report was made 1 hour and 34 minutes ago, at 17:06 UTC
Forecast valid from 06 at 18 UTC to 07 at 18 UTC
Wind 2 kt from variable directions
Visibility 10 km or more
no clouds below 1500 m and no cumulonimbus
Becoming
from 07 at 00 UTC to 07 at 02 UTC
Wind 10 kt from the East/Northeast
Becoming
from 07 at 07 UTC to 07 at 09 UTC
Wind 2 kt from variable directions

TAF: NZCH 061706Z 0618/0718 VRB02KT CAVOK BECMG 0700/0702 06010KT BECMG 0707/0709 VRB02KT

METAR-TAF

Weather observations and forecasts of more than 4000 airports (METAR and TAF reports).

The available stations are represented by yellow and red dots on the map.

Hover mouse over dot to see the name of the station.

Then click to see weather observations and forecasts.

To change the map : click on the green buttons with a black cross to zoom in, on the green button with a dash to zoom out, or on the green arrows for adjacent maps.


METAR-TAF: